• Join FlightAware (Why Join?)
  • Login
  • US Flag 
02:57PM EDT


 

Airport Tracker/Info


-or-


 

Live Flight TrackerFlight Track Log ✈ AAL2345 ✈ 10-Jun-2013 ✈ KORD - KDFW

Flight Track Log - Related Links

Times and Time Zones

All times are in EDT time to prevent confusion due to time zone crossing. See the AAL2345 flight status page for this flight to view local times or setup timezone preferences in your user account.

Time Position Orientation Groundspeed Altitude Reporting Facility
EDT Latitude Longitude Course Direction KTS MPH feet Rate Location/Type
06:49PM 41.9000 -87.9000 207° Southwest 205 236 3,200  Level Chicago TRACON
06:50PM 41.8333 -87.9000 180° South 261 300 5,100 1,740 Climbing Chicago TRACON
06:51PM 41.7287 -88.2058 201° Southwest  Level Estimated
06:51PM 41.8047 -87.8983 178° South 249 287 6,000  Level Chicago Center
06:52PM 41.6442 -88.3049 197° South  Level Estimated
06:52PM 41.7236 -87.9050 184° South 289 333 8,900  Level Chicago Center
06:53PM 41.5458 -88.2325 151° Southeast  Level FlightAware Approximate
06:53PM 41.6400 -87.9797 214° Southwest 302 348 11,800  Level Chicago Center
06:54PM 41.4619 -88.3324 207° Southwest  Level Estimated
06:54PM 41.5650 -88.0442 213° Southwest 322 371 14,100  Level Chicago Center
06:55PM 41.4856 -88.1114 212° Southwest 342 394 15,700 1,740 Climbing Chicago Center
06:56PM 41.3753 -88.1939 209° Southwest 403 464 17,700 1,980 Climbing Chicago Center
06:57PM 41.2678 -88.2431 199° South 414 476 19,900 1,980 Climbing Chicago Center
06:58PM 41.1583 -88.2925 199° South 419 482 21,900 1,320 Climbing Chicago Center
06:59PM 41.0428 -88.3461 199° South 439 505 22,700 1,080 Climbing Chicago Center
07:00PM 40.9197 -88.3989 198° South 464 534 24,200 1,620 Climbing Chicago Center
07:01PM 40.7689 -88.4672 199° South 478 550 26,100 1,680 Climbing Chicago Center
07:02PM 40.6497 -88.5353 203° Southwest 477 549 27,700 1,320 Climbing Chicago Center
07:03PM 40.5475 -88.6386 218° Southwest 465 535 28,900 960 Climbing Chicago Center
07:04PM 40.4392 -88.7356 214° Southwest 473 544 29,800 480 Climbing Chicago Center
07:05PM 40.3258 -88.8344 214° Southwest 481 554 30,000 60 Climbing Chicago Center
07:06PM 40.2164 -88.9336 215° Southwest 477 549 30,000  Level Chicago Center
07:07PM 40.0819 -89.0519 214° Southwest 481 554 30,000  Level Chicago Center
07:08PM 39.9914 -89.1356 215° Southwest 484 557 30,000  Level Kansas City Center
07:09PM 39.8786 -89.2353 214° Southwest 486 559 30,000  Level Kansas City Center
07:10PM 39.7658 -89.3353 214° Southwest 488 562 30,000  Level Kansas City Center
07:11PM 39.6508 -89.4361 214° Southwest 484 557 30,000  Level Kansas City Center
07:12PM 39.5392 -89.5333 214° Southwest 484 557 30,000  Level Kansas City Center
07:13PM 39.4275 -89.6325 214° Southwest 485 558 30,000  Level Kansas City Center
07:14PM 39.3153 -89.7286 214° Southwest 486 559 30,000  Level Kansas City Center
07:15PM 39.1775 -89.8467 214° Southwest 487 560 30,000  Level Kansas City Center
07:16PM 39.0650 -89.9444 214° Southwest 488 562 30,000  Level Kansas City Center
07:17PM 38.9642 -90.0506 219° Southwest 484 557 30,000  Level Kansas City Center
07:18PM 38.8797 -90.1681 227° Southwest 470 541 30,000  Level Kansas City Center
07:19PM 38.7894 -90.2911 227° Southwest 471 542 30,000  Level Kansas City Center
07:20PM 38.6808 -90.4381 227° Southwest 472 543 30,000  Level Kansas City Center
07:21PM 38.5892 -90.5592 226° Southwest 477 549 30,000  Level Kansas City Center
07:22PM 38.5000 -90.6814 227° Southwest 473 544 30,000  Level Kansas City Center
07:24PM 38.4142 -90.7961 226° Southwest 476 548 30,000  Level Kansas City Center
07:25PM 38.3228 -90.9169 226° Southwest 475 547 30,000  Level Kansas City Center
07:26PM 38.2150 -91.0597 226° Southwest 470 541 30,000  Level Kansas City Center
07:27PM 38.1353 -91.1653 226° Southwest 467 537 30,000  Level Kansas City Center
07:28PM 38.0272 -91.3069 226° Southwest 465 535 30,000  Level Kansas City Center
07:29PM 37.9367 -91.4261 226° Southwest 465 535 30,000  Level Kansas City Center
07:30PM 37.8472 -91.5464 227° Southwest 466 536 30,000  Level Kansas City Center
07:31PM 37.7558 -91.6658 226° Southwest 468 539 30,000  Level Kansas City Center
07:32PM 37.6656 -91.7844 226° Southwest 466 536 30,000  Level Kansas City Center
07:33PM 37.5747 -91.9031 226° Southwest 465 535 30,000  Level Kansas City Center
07:34PM 37.4833 -92.0208 226° Southwest 465 535 30,000  Level Kansas City Center
07:35PM 37.3839 -92.1306 221° Southwest 469 540 30,000  Level Kansas City Center
07:36PM 37.2856 -92.2381 221° Southwest 467 537 30,000  Level Kansas City Center
07:37PM 37.1883 -92.3492 222° Southwest 469 540 30,000  Level Kansas City Center
07:38PM 37.0703 -92.4778 221° Southwest 467 537 30,000  Level Kansas City Center
07:39PM 36.9722 -92.5844 221° Southwest 465 535 30,000  Level Kansas City Center
07:40PM 36.8736 -92.6911 221° Southwest 466 536 30,000  Level Kansas City Center
07:41PM 36.7769 -92.7967 221° Southwest 463 533 30,000  Level Kansas City Center
07:42PM 36.6789 -92.9017 221° Southwest 463 533 30,000  Level Kansas City Center
07:43PM 36.5747 -93.0131 221° Southwest 463 533 30,000  Level Kansas City Center
07:44PM 36.4781 -93.1186 221° Southwest 464 534 30,000  Level Kansas City Center
07:45PM 36.3819 -93.2228 221° Southwest 462 532 30,000  Level Kansas City Center
07:45PM 36.3394 -93.2708 222° Southwest 469 540 30,000  Level Memphis Center
07:46PM 36.2411 -93.3753 221° Southwest 464 534 30,000  Level Memphis Center
07:47PM 36.1447 -93.4772 221° Southwest 464 534 30,000  Level Memphis Center
07:48PM 36.0439 -93.5839 221° Southwest 464 534 30,000  Level Memphis Center
07:49PM 35.9494 -93.6853 221° Southwest 464 534 30,000  Level Memphis Center
07:50PM 35.8508 -93.7889 220° Southwest 464 534 30,000  Level Memphis Center
07:51PM 35.7500 -93.8947 220° Southwest 464 534 30,000  Level Memphis Center
07:52PM 35.6489 -93.9975 220° Southwest 469 540 30,000  Level Memphis Center
07:53PM 35.5519 -94.1006 221° Southwest 469 540 30,000  Level Memphis Center
07:54PM 35.4550 -94.2033 221° Southwest 469 540 30,000  Level Memphis Center
07:55PM 35.3517 -94.3053 219° Southwest 469 540 30,000  Level Memphis Center
07:56PM 35.2542 -94.4153 223° Southwest 474 545 30,000  Level Memphis Center
07:59PM 35.0403 -94.6544 223° Southwest 483 556 30,000  Level Fort Worth Center
08:00PM 34.9464 -94.7514 220° Southwest 478 550 30,000  Level Fort Worth Center
08:01PM 34.8400 -94.8533 218° Southwest 478 550 30,000 -240 Level Fort Worth Center
08:02PM 34.7111 -94.8775 189° South 459 528 29,600 -780 Descending Fort Worth Center
08:03PM 34.5794 -94.8611 174° South 460 529 28,500 -840 Descending Fort Worth Center
08:04PM 34.4494 -94.8397 172° South 460 529 28,000 -300 Descending Fort Worth Center
08:05PM 34.3292 -94.8761 194° South 460 529 28,000 -180 Level Fort Worth Center
08:06PM 34.2586 -95.0014 236° Southwest 407 468 27,700 -1,020 Descending Fort Worth Center
08:07PM 34.1900 -95.1211 235° Southwest 416 479 26,000 -1,680 Descending Fort Worth Center
08:08PM 34.1192 -95.2408 234° Southwest 436 502 24,400 -1,020 Descending Fort Worth Center
08:09PM 34.0503 -95.3631 236° Southwest 442 509 24,000 -360 Descending Fort Worth Center
08:10PM 33.9853 -95.4797 236° Southwest 442 509 23,700 -1,080 Descending Fort Worth Center
08:11PM 33.9058 -95.6092 234° Southwest 442 509 21,900 -1,800 Descending Fort Worth Center
08:12PM 33.8344 -95.7331 235° Southwest 442 509 20,100 -1,800 Descending Fort Worth Center
08:13PM 33.7650 -95.8519 235° Southwest 442 509 18,300 -1,800 Descending Fort Worth Center
08:14PM 33.6975 -95.9656 234° Southwest 437 503 16,500 -1,800 Descending Fort Worth Center
08:15PM 33.6381 -96.0661 235° Southwest 423 487 14,800 -1,740 Descending Fort Worth Center
08:16PM 33.5706 -96.1844 236° Southwest 408 470 13,100 -1,500 Descending Fort Worth Center
08:17PM 33.5086 -96.2725 230° Southwest 396 456 11,800 -1,080 Descending Fort Worth Center
08:18PM 33.4303 -96.3656 225° Southwest 376 433 11,000 -600 Descending Fort Worth Center
08:19PM 33.3744 -96.4333 225° Southwest 333 383 10,600 -900 Descending Fort Worth Center
08:20PM 33.3250 -96.5258 237° Southwest 311 358 9,200 -1,440 Descending Fort Worth Center
08:21PM 33.2797 -96.6058 236° Southwest 300 345 7,800 -1,320 Descending Fort Worth Center
08:22PM 33.2403 -96.6733 235° Southwest 285 328 6,600 -1,440 Descending Fort Worth Center
08:23PM 33.1969 -96.7531 237° Southwest 280 322 5,000 -780 Descending Fort Worth Center
08:24PM 33.1658 -96.8178 240° Southwest 247 284 5,100 -300 Climbing Fort Worth Center
08:25PM 33.1411 -96.8875 247° West 233 268 4,400 -720 Descending Fort Worth Center
08:26PM 33.1167 -96.9333 238° Southwest 221 254 3,800 -540 Descending Dallas / Fort Worth TRACON
08:27PM 33.0833 -97.0000 239° Southwest 191 220 3,400 -420 Descending Dallas / Fort Worth TRACON